createdAt,value
2019-01-20T00:03:45.303Z,33.57
2019-01-20T00:08:49.078Z,28.60
2019-01-20T00:13:52.863Z,27.60
2019-01-20T00:18:56.701Z,28.90
2019-01-20T00:24:00.522Z,30.93
2019-01-20T00:29:06.802Z,28.17
2019-01-20T00:34:10.577Z,27.60
2019-01-20T00:39:14.515Z,28.47
2019-01-20T00:44:18.375Z,26.50
2019-01-20T00:49:22.135Z,28.47
2019-01-20T00:54:25.981Z,25.03
2019-01-20T00:59:29.932Z,28.73
2019-01-20T01:04:33.782Z,31.37
2019-01-20T01:09:37.525Z,30.27
2019-01-20T01:14:42.228Z,28.83
2019-01-20T01:19:46.007Z,28.00
2019-01-20T01:24:50.198Z,29.73
2019-01-20T01:29:54.164Z,26.63
2019-01-20T01:34:58.355Z,28.13
2019-01-20T01:40:02.048Z,29.07
2019-01-20T01:45:08.123Z,28.50
2019-01-20T01:50:13.056Z,28.67
2019-01-20T01:55:16.934Z,31.30
2019-01-20T02:00:22.691Z,28.33
2019-01-20T02:05:26.680Z,31.53
2019-01-20T02:10:30.407Z,28.17
2019-01-20T02:15:34.497Z,37.07
2019-01-20T02:20:38.482Z,33.53
2019-01-20T02:25:42.243Z,27.10
2019-01-20T02:30:46.030Z,26.20
2019-01-20T02:35:49.769Z,31.00
2019-01-20T02:40:54.014Z,28.87
2019-01-20T02:45:57.785Z,29.83
2019-01-20T02:51:01.755Z,29.43
2019-01-20T02:56:05.708Z,35.30
2019-01-20T03:01:09.824Z,32.53
2019-01-20T03:06:13.912Z,31.87
2019-01-20T03:11:17.670Z,35.43
2019-01-20T03:16:21.581Z,30.00
2019-01-20T03:21:25.373Z,32.27
2019-01-20T03:26:29.452Z,29.07
2019-01-20T03:31:33.199Z,36.00
2019-01-20T03:36:37.025Z,29.47
2019-01-20T03:41:41.083Z,32.23
2019-01-20T03:46:44.953Z,31.33
2019-01-20T03:51:48.663Z,36.53
2019-01-20T03:56:52.773Z,33.20
2019-01-20T04:01:56.571Z,34.77
2019-01-20T04:07:00.738Z,32.70
2019-01-20T04:12:04.746Z,35.10
2019-01-20T04:17:08.853Z,33.57
2019-01-20T04:22:12.541Z,34.17
2019-01-20T04:27:16.287Z,35.03
2019-01-20T04:32:20.302Z,38.57
2019-01-20T04:37:23.984Z,34.90
2019-01-20T04:42:29.279Z,35.27
2019-01-20T04:47:33.851Z,35.27
2019-01-20T04:52:37.611Z,38.17
2019-01-20T04:57:41.973Z,32.10
2019-01-20T05:02:45.878Z,40.30
2019-01-20T05:07:49.588Z,36.80
2019-01-20T05:12:53.408Z,38.00
2019-01-20T05:17:57.340Z,30.90
2019-01-20T05:23:01.269Z,31.60
2019-01-20T05:28:05.020Z,39.10
2019-01-20T05:33:09.092Z,33.53
2019-01-20T05:38:12.884Z,38.57
2019-01-20T05:43:16.716Z,36.17
2019-01-20T05:48:20.517Z,33.10
2019-01-20T05:53:24.263Z,39.50
2019-01-20T05:58:28.232Z,36.13
2019-01-20T06:03:31.909Z,37.60
2019-01-20T06:08:35.591Z,41.00
2019-01-20T06:13:39.304Z,35.60
2019-01-20T06:18:43.273Z,36.20
2019-01-20T06:23:47.006Z,38.07
2019-01-20T06:28:50.812Z,39.07
2019-01-20T06:33:54.552Z,35.20
2019-01-20T06:38:58.493Z,35.03
2019-01-20T06:44:02.180Z,41.50
2019-01-20T06:49:05.903Z,38.20
2019-01-20T06:54:09.809Z,35.43
2019-01-20T06:59:13.517Z,35.57
2019-01-20T07:04:17.235Z,37.67
2019-01-20T07:09:21.249Z,40.47
2019-01-20T07:14:25.020Z,40.17
2019-01-20T07:19:28.982Z,38.83
2019-01-20T07:24:32.653Z,41.00
2019-01-20T07:29:36.557Z,36.87
2019-01-20T07:34:40.238Z,32.37
2019-01-20T07:39:43.951Z,31.33
2019-01-20T07:44:47.809Z,31.07
2019-01-20T07:49:51.484Z,26.43
2019-01-20T07:54:55.281Z,29.37
2019-01-20T07:59:58.957Z,26.70
2019-01-20T08:05:02.667Z,27.80
2019-01-20T08:10:09.953Z,29.27
2019-01-20T08:15:14.178Z,31.93
2019-01-20T08:20:19.241Z,34.50
2019-01-20T08:25:23.274Z,48.20
2019-01-20T08:30:27.646Z,49.87
2019-01-20T08:35:31.326Z,49.73
2019-01-20T08:40:35.031Z,53.30
2019-01-20T08:45:45.479Z,40.70
2019-01-20T08:50:49.419Z,36.53
2019-01-20T08:55:53.371Z,34.47
2019-01-20T09:00:57.048Z,36.57
2019-01-20T09:06:00.999Z,31.73
2019-01-20T09:11:04.955Z,29.77
2019-01-20T09:16:08.707Z,29.70
2019-01-20T09:21:12.400Z,38.80
2019-01-20T09:26:16.087Z,39.97
2019-01-20T09:31:19.789Z,29.53
2019-01-20T09:36:23.793Z,65.40
2019-01-20T09:41:27.535Z,25.53
2019-01-20T09:46:31.312Z,25.23
2019-01-20T09:51:35.009Z,25.87
2019-01-20T09:56:39.219Z,26.77
2019-01-20T10:01:43.195Z,26.43
2019-01-20T10:06:47.041Z,28.60
2019-01-20T10:11:51.092Z,28.67
2019-01-20T10:16:54.773Z,28.47
2019-01-20T10:21:58.741Z,26.90
2019-01-20T10:27:02.637Z,28.07
2019-01-20T10:32:06.299Z,23.93
2019-01-20T10:37:10.223Z,25.43
2019-01-20T10:42:13.928Z,27.50
2019-01-20T10:47:17.875Z,25.10
2019-01-20T10:52:21.564Z,25.80
2019-01-20T10:57:25.569Z,26.43
2019-01-20T11:02:29.269Z,29.55
2019-01-20T11:07:33.617Z,24.23
2019-01-20T11:12:37.368Z,25.10
2019-01-20T11:17:41.060Z,26.68
2019-01-20T11:22:44.921Z,28.90
2019-01-20T11:27:48.832Z,24.03
2019-01-20T11:32:52.682Z,26.30
2019-01-20T11:37:56.535Z,26.10
2019-01-20T11:43:00.551Z,25.83
2019-01-20T11:48:04.677Z,25.00
2019-01-20T11:53:08.394Z,24.80
2019-01-20T11:58:12.074Z,25.37
2019-01-20T12:03:15.793Z,23.83
2019-01-20T12:08:19.481Z,23.13
2019-01-20T12:13:27.695Z,22.60
2019-01-20T12:18:31.682Z,21.63
2019-01-20T12:23:36.086Z,20.30
2019-01-20T12:28:40.537Z,17.37
2019-01-20T12:33:44.755Z,20.50
2019-01-20T12:38:48.719Z,16.73
2019-01-20T12:43:52.414Z,17.67
2019-01-20T12:48:56.120Z,17.87
2019-01-20T12:53:59.901Z,18.33
2019-01-20T12:59:04.772Z,18.57
2019-01-20T13:04:15.049Z,17.17
2019-01-20T13:09:18.921Z,16.70
2019-01-20T13:14:22.906Z,17.73
2019-01-20T13:19:26.860Z,14.50
2019-01-20T13:24:30.697Z,14.83
2019-01-20T13:29:50.849Z,13.97
2019-01-20T13:34:54.527Z,16.13
2019-01-20T13:40:16.843Z,19.40
2019-01-20T13:45:24.578Z,12.80
2019-01-20T13:50:28.520Z,13.70
2019-01-20T13:55:34.773Z,20.07
2019-01-20T14:00:38.535Z,19.30
2019-01-20T14:05:42.267Z,16.07
2019-01-20T14:10:46.079Z,16.60
2019-01-20T14:15:49.828Z,17.10
2019-01-20T14:20:53.803Z,17.63
2019-01-20T14:25:57.572Z,17.77
2019-01-20T14:31:01.882Z,18.40
2019-01-20T14:36:08.623Z,17.33
2019-01-20T14:41:13.210Z,18.37
2019-01-20T14:46:19.199Z,18.57
2019-01-20T14:51:23.591Z,22.33
2019-01-20T14:56:31.745Z,21.47
2019-01-20T15:01:35.726Z,21.93
2019-01-20T15:06:39.791Z,21.17
2019-01-20T15:11:43.695Z,23.07
2019-01-20T15:16:47.609Z,20.83
2019-01-20T15:21:51.644Z,22.60
2019-01-20T15:26:55.348Z,24.57
2019-01-20T15:31:59.399Z,20.17
2019-01-20T15:37:03.100Z,21.83
2019-01-20T15:42:06.867Z,20.90
2019-01-20T15:47:11.011Z,21.17
2019-01-20T15:52:15.045Z,26.00
2019-01-20T15:57:18.825Z,21.00
2019-01-20T16:02:22.625Z,22.10
2019-01-20T16:07:26.690Z,23.03
2019-01-20T16:12:30.421Z,21.67
2019-01-20T16:17:34.114Z,27.40
2019-01-20T16:22:38.097Z,23.87
2019-01-20T16:27:42.992Z,29.30
2019-01-20T16:32:46.873Z,31.53
2019-01-20T16:37:50.812Z,27.30
2019-01-20T16:42:56.601Z,30.13
2019-01-20T16:48:00.341Z,32.13
2019-01-20T16:53:04.294Z,29.53
2019-01-20T16:58:08.103Z,32.87
2019-01-20T17:03:11.884Z,33.83
2019-01-20T17:08:15.896Z,32.47
2019-01-20T17:13:19.661Z,33.83
2019-01-20T17:18:23.735Z,35.97
2019-01-20T17:23:27.518Z,34.40
2019-01-20T17:28:31.550Z,42.07
2019-01-20T17:33:35.261Z,37.87
2019-01-20T17:38:38.915Z,35.07
2019-01-20T17:43:42.605Z,38.43
2019-01-20T17:48:46.271Z,38.43
2019-01-20T17:53:50.176Z,37.17
2019-01-20T17:58:54.275Z,38.63
2019-01-20T18:03:59.323Z,44.47
2019-01-20T18:09:03.653Z,43.40
2019-01-20T18:14:07.408Z,42.90
2019-01-20T18:19:11.109Z,45.90
2019-01-20T18:24:21.197Z,46.17
2019-01-20T18:29:25.203Z,38.97
2019-01-20T18:34:28.879Z,44.93
2019-01-20T18:39:32.572Z,38.93
2019-01-20T18:44:36.355Z,42.77
2019-01-20T18:49:40.059Z,55.70
2019-01-20T18:54:43.809Z,54.63
2019-01-20T18:59:47.532Z,56.23
2019-01-20T19:04:51.199Z,48.07
2019-01-20T19:09:54.912Z,57.83
2019-01-20T19:14:58.642Z,57.10
2019-01-20T19:20:02.312Z,56.20
2019-01-20T19:25:06.645Z,73.83
2019-01-20T19:30:21.627Z,70.60
2019-01-20T19:35:25.653Z,71.07
2019-01-20T19:40:29.327Z,66.90
2019-01-20T19:45:33.067Z,71.37
2019-01-20T19:50:37.079Z,65.07
2019-01-20T19:55:40.999Z,58.77
2019-01-20T20:00:44.704Z,64.60
2019-01-20T20:05:48.392Z,67.10
2019-01-20T20:10:52.117Z,55.27
2019-01-20T20:15:56.165Z,54.50
2019-01-20T20:20:59.886Z,52.93
2019-01-20T20:26:03.678Z,54.83
2019-01-20T20:31:07.430Z,66.00
2019-01-20T20:36:11.233Z,60.47
2019-01-20T20:41:14.976Z,60.10
2019-01-20T20:46:18.682Z,55.73
2019-01-20T20:51:22.361Z,53.80
2019-01-20T20:56:26.050Z,54.90
2019-01-20T21:01:29.941Z,55.90
2019-01-20T21:06:33.623Z,55.03
2019-01-20T21:11:37.635Z,52.03
2019-01-20T21:16:41.694Z,59.53
2019-01-20T21:21:45.554Z,53.17
2019-01-20T21:26:49.532Z,54.23
2019-01-20T21:31:53.396Z,60.50
2019-01-20T21:36:59.468Z,55.60
2019-01-20T21:42:03.376Z,57.03
2019-01-20T21:47:07.460Z,57.67
2019-01-20T21:52:11.615Z,64.30
2019-01-20T21:57:15.986Z,62.93
2019-01-20T22:02:20.040Z,68.03
2019-01-20T22:07:24.156Z,64.53
2019-01-20T22:12:28.382Z,64.63
2019-01-20T22:17:32.671Z,70.57
2019-01-20T22:22:36.418Z,58.93
2019-01-20T22:27:40.264Z,56.87
2019-01-20T22:32:44.964Z,59.13
2019-01-20T22:37:48.832Z,53.70
2019-01-20T22:42:52.941Z,54.03
2019-01-20T22:47:56.826Z,47.63
2019-01-20T22:53:00.748Z,52.40
2019-01-20T22:58:04.684Z,52.00
2019-01-20T23:03:08.804Z,51.23
2019-01-20T23:08:12.987Z,53.17
2019-01-20T23:13:16.881Z,50.30
2019-01-20T23:18:20.950Z,54.97
2019-01-20T23:23:24.740Z,52.13
2019-01-20T23:28:28.789Z,52.17
2019-01-20T23:33:32.514Z,45.03
2019-01-20T23:38:36.572Z,51.17
2019-01-20T23:43:40.307Z,51.30
2019-01-20T23:48:44.348Z,46.83
2019-01-20T23:53:48.132Z,49.97
2019-01-20T23:58:51.801Z,46.30
